createdAt,value
2022-09-14T00:02:02.017Z,27.40
2022-09-14T00:04:28.475Z,30.23
2022-09-14T00:06:54.883Z,33.00
2022-09-14T00:09:23.423Z,29.58
2022-09-14T00:11:50.524Z,27.67
2022-09-14T00:14:17.502Z,28.00
2022-09-14T00:16:44.447Z,37.10
2022-09-14T00:19:22.818Z,34.45
2022-09-14T00:21:55.054Z,28.80
2022-09-14T00:24:22.970Z,38.70
2022-09-14T00:26:49.662Z,35.25
2022-09-14T00:29:16.557Z,31.60
2022-09-14T00:31:43.048Z,36.05
2022-09-14T00:34:14.027Z,34.20
2022-09-14T00:36:44.683Z,37.63
2022-09-14T00:39:12.292Z,36.72
2022-09-14T00:41:41.498Z,33.63
2022-09-14T00:44:27.762Z,45.67
2022-09-14T00:47:00.371Z,33.47
2022-09-14T00:49:31.316Z,30.70
2022-09-14T00:52:15.210Z,28.63
2022-09-14T00:54:46.356Z,23.77
2022-09-14T00:57:14.080Z,23.30
2022-09-14T00:59:42.345Z,24.50
2022-09-14T01:02:11.146Z,23.25
2022-09-14T01:04:38.285Z,27.05
2022-09-14T01:07:45.778Z,30.48
2022-09-14T01:10:18.468Z,28.13
2022-09-14T01:13:22.958Z,32.92
2022-09-14T01:16:07.773Z,31.10
2022-09-14T01:18:38.756Z,26.73
2022-09-14T01:21:10.594Z,28.40
2022-09-14T01:23:49.047Z,26.67
2022-09-14T01:26:57.877Z,22.13
2022-09-14T01:29:38.029Z,24.50
2022-09-14T01:32:12.645Z,25.23
2022-09-14T01:35:03.388Z,27.75
2022-09-14T01:37:50.585Z,25.55
2022-09-14T01:40:24.471Z,27.63
2022-09-14T01:42:56.370Z,23.95
2022-09-14T01:45:26.071Z,21.27
2022-09-14T01:48:01.593Z,21.20
2022-09-14T01:53:13.930Z,30.20
2022-09-14T01:55:45.992Z,26.10
2022-09-14T01:58:20.163Z,22.45
2022-09-14T02:00:49.158Z,23.52
2022-09-14T02:03:25.290Z,19.30
2022-09-14T02:06:10.541Z,26.27
2022-09-14T02:08:37.287Z,28.10
2022-09-14T02:11:03.675Z,49.25
2022-09-14T02:13:30.355Z,44.45
2022-09-14T02:15:56.788Z,39.28
2022-09-14T02:18:23.565Z,28.52
2022-09-14T02:21:01.473Z,39.35
2022-09-14T02:23:28.406Z,88.30
2022-09-14T02:25:55.756Z,40.90
2022-09-14T02:28:22.353Z,65.68
2022-09-14T02:30:55.149Z,86.68
2022-09-14T02:34:04.706Z,60.85
2022-09-14T02:36:51.923Z,101.80
2022-09-14T02:39:43.193Z,54.75
2022-09-14T02:42:20.374Z,62.17
2022-09-14T02:45:09.680Z,118.90
2022-09-14T02:48:02.730Z,31.60
2022-09-14T02:50:56.032Z,41.70
2022-09-14T02:53:59.795Z,51.05
2022-09-14T02:56:28.612Z,46.60
2022-09-14T02:58:55.628Z,46.33
2022-09-14T03:01:23.609Z,28.80
2022-09-14T03:03:50.571Z,28.10
2022-09-14T03:06:17.122Z,23.63
2022-09-14T03:08:43.816Z,35.72
2022-09-14T03:11:10.691Z,35.58
2022-09-14T03:13:37.267Z,31.30
2022-09-14T03:16:09.148Z,40.42
2022-09-14T03:18:36.615Z,33.00
2022-09-14T03:21:04.760Z,26.48
2022-09-14T03:23:34.732Z,40.65
2022-09-14T03:26:01.036Z,36.95
2022-09-14T03:28:27.346Z,28.13
2022-09-14T03:30:53.720Z,27.95
2022-09-14T03:33:20.010Z,30.35
2022-09-14T03:35:46.425Z,23.85
2022-09-14T03:38:12.755Z,23.77
2022-09-14T03:40:39.134Z,24.00
2022-09-14T03:43:05.553Z,32.25
2022-09-14T03:45:31.842Z,23.38
2022-09-14T03:47:58.128Z,27.83
2022-09-14T03:50:24.480Z,38.17
2022-09-14T03:52:50.837Z,80.43
2022-09-14T03:55:19.104Z,52.35
2022-09-14T03:57:45.408Z,49.05
2022-09-14T04:00:12.075Z,53.97
2022-09-14T04:02:39.309Z,26.17
2022-09-14T04:05:06.998Z,24.40
2022-09-14T04:07:33.615Z,22.77
2022-09-14T04:10:00.070Z,28.55
2022-09-14T04:12:26.713Z,22.95
2022-09-14T04:14:53.138Z,23.15
2022-09-14T04:17:19.472Z,28.23
2022-09-14T04:19:45.912Z,25.40
2022-09-14T04:22:12.290Z,34.55
2022-09-14T04:24:38.618Z,28.17
2022-09-14T04:27:05.046Z,36.15
2022-09-14T04:29:31.482Z,20.70
2022-09-14T04:31:57.956Z,23.55
2022-09-14T04:34:24.876Z,24.00
2022-09-14T04:36:51.198Z,20.75
2022-09-14T04:39:17.708Z,22.05
2022-09-14T04:41:44.099Z,60.05
2022-09-14T04:44:10.734Z,42.83
2022-09-14T04:46:43.551Z,56.30
2022-09-14T04:49:13.355Z,26.77
2022-09-14T04:51:39.796Z,27.88
2022-09-14T04:54:07.224Z,27.95
2022-09-14T04:56:35.714Z,48.97
2022-09-14T04:59:04.264Z,31.52
2022-09-14T05:01:34.835Z,22.83
2022-09-14T05:04:01.638Z,32.45
2022-09-14T05:06:30.894Z,29.00
2022-09-14T05:08:59.816Z,34.58
2022-09-14T05:13:56.615Z,75.93
2022-09-14T05:16:34.476Z,70.35
2022-09-14T05:19:03.045Z,74.53
2022-09-14T05:21:31.458Z,61.97
2022-09-14T05:24:00.419Z,124.00
2022-09-14T05:28:56.415Z,32.55
2022-09-14T05:31:24.475Z,34.95
2022-09-14T05:33:51.420Z,100.70
2022-09-14T05:36:17.973Z,256.88
2022-09-14T05:38:44.473Z,109.25
2022-09-14T05:41:13.273Z,235.50
2022-09-14T05:43:40.500Z,86.35
2022-09-14T05:46:12.749Z,55.97
2022-09-14T05:48:40.225Z,59.13
2022-09-14T05:51:10.695Z,115.70
2022-09-14T05:53:37.619Z,98.22
2022-09-14T05:56:09.897Z,76.00
2022-09-14T05:58:40.228Z,202.52
2022-09-14T06:01:12.338Z,152.52
2022-09-14T06:03:42.055Z,90.53
2022-09-14T06:06:12.097Z,109.35
2022-09-14T06:08:42.251Z,84.20
2022-09-14T06:11:11.689Z,67.32
2022-09-14T06:13:40.830Z,43.00
2022-09-14T06:16:12.731Z,54.72
2022-09-14T06:18:43.918Z,110.28
2022-09-14T06:21:14.991Z,32.22
2022-09-14T06:23:41.619Z,87.63
2022-09-14T06:26:08.431Z,17.13
2022-09-14T06:28:35.412Z,16.77
2022-09-14T06:31:09.743Z,17.70
2022-09-14T06:33:36.734Z,26.88
2022-09-14T06:36:04.713Z,21.23
2022-09-14T06:38:31.175Z,17.60
2022-09-14T06:41:02.601Z,17.13
2022-09-14T06:43:33.920Z,17.77
2022-09-14T06:46:10.966Z,19.00
2022-09-14T06:48:45.152Z,17.00
2022-09-14T06:51:14.679Z,22.42
2022-09-14T06:53:45.703Z,26.55
2022-09-14T06:56:13.616Z,28.10
2022-09-14T06:58:46.245Z,21.98
2022-09-14T07:01:18.456Z,16.77
2022-09-14T07:03:46.795Z,21.75
2022-09-14T07:06:16.598Z,19.77
2022-09-14T07:08:43.846Z,17.55
2022-09-14T07:11:12.754Z,21.08
2022-09-14T07:13:39.579Z,20.75
2022-09-14T07:16:06.564Z,19.80
2022-09-14T07:18:33.036Z,18.00
2022-09-14T07:21:06.512Z,15.63
2022-09-14T07:23:33.936Z,14.57
2022-09-14T07:26:08.125Z,16.92
2022-09-14T07:28:35.987Z,17.33
2022-09-14T07:31:03.226Z,17.98
2022-09-14T07:33:30.035Z,18.65
2022-09-14T07:36:11.532Z,18.65
2022-09-14T07:38:53.859Z,18.35
2022-09-14T07:41:22.687Z,19.63
2022-09-14T07:43:53.888Z,20.38
2022-09-14T07:46:21.792Z,21.08
2022-09-14T07:48:49.157Z,21.13
2022-09-14T07:51:15.937Z,23.90
2022-09-14T07:53:43.218Z,21.33
2022-09-14T07:56:13.606Z,21.92
2022-09-14T07:58:42.971Z,29.50
2022-09-14T08:01:14.919Z,27.98
2022-09-14T08:03:43.410Z,23.70
2022-09-14T08:06:15.661Z,26.17
2022-09-14T08:08:44.674Z,22.33
2022-09-14T08:13:40.858Z,23.65
2022-09-14T08:16:08.085Z,24.00
2022-09-14T08:18:35.648Z,23.33
2022-09-14T08:21:07.191Z,27.75
2022-09-14T08:23:34.579Z,24.67
2022-09-14T08:26:03.765Z,25.20
2022-09-14T08:28:30.181Z,22.92
2022-09-14T08:31:01.892Z,23.52
2022-09-14T08:33:28.223Z,19.92
2022-09-14T08:35:57.831Z,18.90
2022-09-14T08:38:25.096Z,18.30
2022-09-14T08:40:52.099Z,17.85
2022-09-14T08:43:21.278Z,17.52
2022-09-14T08:45:50.556Z,13.90
2022-09-14T09:53:51.101Z,18.90
2022-09-14T09:56:25.317Z,10.75
2022-09-14T09:58:52.246Z,11.70
2022-09-14T10:01:26.619Z,10.98
2022-09-14T10:04:19.785Z,11.50
2022-09-14T10:06:49.031Z,21.73
2022-09-14T10:09:21.595Z,10.60
2022-09-14T10:11:57.165Z,7.72
2022-09-14T10:14:33.627Z,8.63
2022-09-14T10:17:21.337Z,10.13
2022-09-14T10:19:49.725Z,12.98
2022-09-14T10:22:29.508Z,13.80
2022-09-14T10:24:58.937Z,13.13
2022-09-14T10:27:39.574Z,11.98
2022-09-14T10:30:17.284Z,11.57
2022-09-14T10:32:53.321Z,10.88
2022-09-14T10:35:21.364Z,9.75
2022-09-14T10:38:15.909Z,11.82
2022-09-14T10:40:46.273Z,10.10
2022-09-14T10:43:17.072Z,10.77
2022-09-14T10:59:51.562Z,9.65
2022-09-14T11:02:50.499Z,8.75
2022-09-14T11:05:25.562Z,8.65
2022-09-14T11:10:45.303Z,9.90
2022-09-14T11:13:34.414Z,8.35
2022-09-14T11:16:27.713Z,7.40
2022-09-14T11:19:17.391Z,7.55
2022-09-14T11:22:04.150Z,7.07
2022-09-14T11:24:41.021Z,7.55
2022-09-14T11:27:22.689Z,7.68
2022-09-14T11:29:57.140Z,6.68
2022-09-14T11:32:27.580Z,6.90
2022-09-14T11:34:58.876Z,8.13
2022-09-14T11:37:37.017Z,6.20
2022-09-14T11:40:10.858Z,6.88
2022-09-14T11:42:47.003Z,8.05
2022-09-14T11:45:23.408Z,8.68
2022-09-14T11:48:02.145Z,6.53
2022-09-14T11:50:31.713Z,8.43
2022-09-14T11:53:08.729Z,7.05
2022-09-14T11:55:36.007Z,6.95
2022-09-14T11:58:06.353Z,10.38
2022-09-14T12:00:47.222Z,12.95
2022-09-14T12:03:18.478Z,6.43
2022-09-14T12:05:46.475Z,7.93
2022-09-14T12:08:30.939Z,17.98
2022-09-14T12:11:02.764Z,10.55
2022-09-14T12:13:29.183Z,10.50
2022-09-14T12:16:04.887Z,9.65
2022-09-14T12:18:34.077Z,11.57
2022-09-14T12:21:22.683Z,8.25
2022-09-14T12:23:53.096Z,8.88
2022-09-14T12:26:19.754Z,14.30
2022-09-14T12:28:48.945Z,8.93
2022-09-14T12:31:35.915Z,10.50
2022-09-14T12:34:15.182Z,10.70
2022-09-14T12:36:41.703Z,10.90
2022-09-14T12:39:26.390Z,11.48
2022-09-14T12:41:52.714Z,11.27
2022-09-14T12:44:30.904Z,12.40
2022-09-14T12:46:57.390Z,12.32
2022-09-14T12:49:32.105Z,12.90
2022-09-14T12:52:04.157Z,13.05
2022-09-14T12:54:51.563Z,11.70
2022-09-14T12:57:28.353Z,12.30
2022-09-14T13:00:01.305Z,14.65
2022-09-14T13:02:33.896Z,15.88
2022-09-14T13:05:00.443Z,12.02
2022-09-14T13:07:32.101Z,11.20
2022-09-14T13:10:00.373Z,9.85
2022-09-14T13:12:43.672Z,10.68
2022-09-14T13:15:21.549Z,12.55
2022-09-14T13:18:18.985Z,14.80
2022-09-14T13:20:54.163Z,12.73
2022-09-14T13:23:22.163Z,14.30
2022-09-14T13:25:49.042Z,13.52
2022-09-14T13:28:19.816Z,14.88
2022-09-14T13:30:59.622Z,16.65
2022-09-14T13:33:27.578Z,16.83
2022-09-14T13:35:56.825Z,18.40
2022-09-14T13:38:29.845Z,13.57
2022-09-14T13:41:05.511Z,16.08
2022-09-14T13:43:32.676Z,13.75
2022-09-14T13:45:59.275Z,9.10
2022-09-14T13:48:25.817Z,8.60
2022-09-14T13:50:52.663Z,8.15
2022-09-14T13:53:37.702Z,5.53
2022-09-14T13:56:21.521Z,4.53
2022-09-14T13:58:50.452Z,7.47
2022-09-14T14:01:26.553Z,5.70
2022-09-14T14:03:53.501Z,4.47
2022-09-14T14:06:28.667Z,4.90
2022-09-14T14:09:04.865Z,3.83
2022-09-14T14:11:38.273Z,5.35
2022-09-14T14:14:21.117Z,4.97
2022-09-14T14:17:18.691Z,2.90
2022-09-14T14:19:48.228Z,5.47
2022-09-14T14:22:14.517Z,2.70
2022-09-14T14:25:12.432Z,2.85
2022-09-14T14:32:43.126Z,2.20
2022-09-14T14:35:32.624Z,2.85
2022-09-14T14:37:59.033Z,4.38
2022-09-14T14:40:27.353Z,4.25
2022-09-14T14:42:54.944Z,3.63
2022-09-14T14:45:26.353Z,3.95
2022-09-14T14:47:54.595Z,3.40
2022-09-14T14:50:26.836Z,2.42
2022-09-14T14:52:53.760Z,3.75
2022-09-14T14:55:21.323Z,2.63
2022-09-14T14:57:48.744Z,5.20
2022-09-14T15:00:18.753Z,4.20
2022-09-14T15:02:45.747Z,2.72
2022-09-14T15:05:19.927Z,2.33
2022-09-14T15:07:52.280Z,4.05
2022-09-14T15:10:20.824Z,4.38
2022-09-14T15:12:47.169Z,4.40
2022-09-14T15:15:23.120Z,1.75
2022-09-14T15:17:50.040Z,4.95
2022-09-14T15:20:18.699Z,4.57
2022-09-14T15:22:45.918Z,2.28
2022-09-14T15:25:13.687Z,4.05
2022-09-14T15:27:40.799Z,3.33
2022-09-14T15:30:08.621Z,3.78
2022-09-14T15:32:35.296Z,2.03
2022-09-14T15:35:02.645Z,2.90
2022-09-14T15:37:29.071Z,2.05
2022-09-14T15:39:55.671Z,3.03
2022-09-14T15:42:22.712Z,2.47
2022-09-14T15:44:49.033Z,3.40
2022-09-14T15:47:16.971Z,2.15
2022-09-14T15:49:43.478Z,3.08
2022-09-14T15:52:11.306Z,1.70
2022-09-14T15:54:38.947Z,2.63
2022-09-14T15:57:07.723Z,3.53
2022-09-14T15:59:34.817Z,1.63
2022-09-14T16:02:01.633Z,4.03
2022-09-14T16:04:28.024Z,4.07
2022-09-14T16:06:54.459Z,2.40
2022-09-14T16:09:22.343Z,4.22
2022-09-14T16:11:49.417Z,3.63
2022-09-14T16:14:15.729Z,2.30
2022-09-14T16:16:42.191Z,3.20
2022-09-14T16:19:14.335Z,3.00
2022-09-14T16:21:42.113Z,2.38
2022-09-14T16:24:13.272Z,3.13
2022-09-14T16:26:39.675Z,2.67
2022-09-14T16:29:08.367Z,2.05
2022-09-14T16:31:36.469Z,2.83
2022-09-14T16:34:06.482Z,2.38
2022-09-14T16:36:36.566Z,2.83
2022-09-14T16:39:05.920Z,1.73
2022-09-14T16:41:32.498Z,2.35
2022-09-14T16:44:01.288Z,2.45
2022-09-14T16:46:29.677Z,2.70
2022-09-14T16:48:56.436Z,4.63
2022-09-14T16:51:27.655Z,2.80
2022-09-14T16:53:54.365Z,3.00
2022-09-14T16:56:23.329Z,3.05
2022-09-14T17:01:19.936Z,5.32
2022-09-14T17:03:48.158Z,2.20
2022-09-14T17:06:22.777Z,5.13
2022-09-14T17:08:49.338Z,2.75
2022-09-14T17:11:16.932Z,3.83
2022-09-14T17:13:44.630Z,2.85
2022-09-14T17:16:14.145Z,2.10
2022-09-14T17:18:43.933Z,2.75
2022-09-14T17:21:16.082Z,4.30
2022-09-14T17:23:42.560Z,3.90
2022-09-14T17:26:11.341Z,2.75
2022-09-14T17:28:38.756Z,3.85
2022-09-14T17:31:06.970Z,2.83
2022-09-14T17:33:35.308Z,2.88
2022-09-14T17:36:04.034Z,3.40
2022-09-14T17:38:36.739Z,4.15
2022-09-14T17:41:11.365Z,2.83
2022-09-14T17:43:39.801Z,3.55
2022-09-14T17:46:08.149Z,3.33
2022-09-14T17:48:39.701Z,3.85
2022-09-14T17:51:08.666Z,5.70
2022-09-14T17:56:07.539Z,3.45
2022-09-14T17:58:34.352Z,3.50
2022-09-14T18:01:23.393Z,3.42
2022-09-14T18:03:55.989Z,3.25
2022-09-14T18:06:24.022Z,3.03
2022-09-14T18:09:00.263Z,3.45
2022-09-14T18:11:28.023Z,4.75
2022-09-14T18:13:54.442Z,4.40
2022-09-14T18:16:22.151Z,5.45
2022-09-14T18:18:51.240Z,5.22
2022-09-14T18:21:20.653Z,2.97
2022-09-14T18:23:54.168Z,2.60
2022-09-14T18:26:22.216Z,3.22
2022-09-14T18:28:50.153Z,3.13
2022-09-14T18:31:18.227Z,2.90
2022-09-14T18:33:58.835Z,2.85
2022-09-14T18:36:28.850Z,3.22
2022-09-14T18:38:56.177Z,2.35
2022-09-14T18:41:22.452Z,1.33
2022-09-14T18:43:51.667Z,2.28
2022-09-14T18:46:18.916Z,2.22
2022-09-14T18:48:51.194Z,1.70
2022-09-14T18:51:18.013Z,1.70
2022-09-14T18:53:44.454Z,1.92
2022-09-14T18:56:13.622Z,2.40
2022-09-14T18:58:46.548Z,3.20
2022-09-14T19:01:14.086Z,2.25
2022-09-14T19:03:42.321Z,5.47
2022-09-14T19:06:11.566Z,3.05
2022-09-14T19:08:37.888Z,7.53
2022-09-14T19:11:06.728Z,7.35
2022-09-14T19:13:33.997Z,5.03
2022-09-14T19:16:08.045Z,8.32
2022-09-14T19:18:35.197Z,4.43
2022-09-14T19:21:10.659Z,4.90
2022-09-14T19:23:37.617Z,8.57
2022-09-14T19:26:05.838Z,4.90
2022-09-14T19:28:32.920Z,8.10
2022-09-14T19:31:06.339Z,6.10
2022-09-14T19:33:32.793Z,5.43
2022-09-14T19:36:07.563Z,4.03
2022-09-14T19:38:34.396Z,4.07
2022-09-14T19:41:00.944Z,5.30
2022-09-14T19:43:27.754Z,6.13
2022-09-14T19:45:54.092Z,5.78
2022-09-14T19:48:20.493Z,5.07
2022-09-14T19:50:46.878Z,10.38
2022-09-14T19:53:13.208Z,10.23
2022-09-14T19:55:39.513Z,19.50
2022-09-14T19:58:05.825Z,8.43
2022-09-14T20:11:36.233Z,6.07
2022-09-14T20:14:05.451Z,5.88
2022-09-14T20:16:43.972Z,9.13
2022-09-14T20:19:13.717Z,8.75
2022-09-14T20:21:41.337Z,5.72
2022-09-14T20:24:16.173Z,8.10
2022-09-14T20:26:44.617Z,6.05
2022-09-14T20:29:11.036Z,5.63
2022-09-14T20:31:37.879Z,4.25
2022-09-14T20:34:04.585Z,5.03
2022-09-14T20:36:30.950Z,4.35
2022-09-14T20:38:59.182Z,5.05
2022-09-14T20:41:30.002Z,4.78
2022-09-14T20:43:57.708Z,4.57
2022-09-14T20:46:25.711Z,4.88
2022-09-14T20:48:53.365Z,3.75
2022-09-14T20:51:21.502Z,6.50
2022-09-14T20:53:48.576Z,3.90
2022-09-14T20:56:23.904Z,6.07
2022-09-14T20:58:54.330Z,5.20
2022-09-14T21:01:25.914Z,8.27
2022-09-14T21:03:53.321Z,8.35
2022-09-14T21:06:22.404Z,6.25
2022-09-14T21:08:48.925Z,6.22
2022-09-14T21:11:18.736Z,11.85
2022-09-14T21:13:46.154Z,9.88
2022-09-14T21:16:24.462Z,6.22
2022-09-14T21:19:00.358Z,8.13
2022-09-14T21:21:27.246Z,9.07
2022-09-14T21:23:55.735Z,5.85
2022-09-14T21:26:23.008Z,4.50
2022-09-14T21:28:54.247Z,5.45
2022-09-14T21:31:21.312Z,5.10
2022-09-14T21:33:50.917Z,5.63
2022-09-14T21:36:23.154Z,5.88
2022-09-14T21:38:50.911Z,7.07
2022-09-14T21:41:18.791Z,6.28
2022-09-14T21:43:45.184Z,7.28
2022-09-14T21:46:11.952Z,7.32
2022-09-14T21:48:38.781Z,5.97
2022-09-14T21:51:18.443Z,5.72
2022-09-14T21:53:47.295Z,6.63
2022-09-14T21:56:14.453Z,4.72
2022-09-14T21:58:41.112Z,5.88
2022-09-14T22:01:08.195Z,4.25
2022-09-14T22:03:35.292Z,5.20
2022-09-14T22:06:04.284Z,4.28
2022-09-14T22:11:12.790Z,5.88
2022-09-14T22:13:39.514Z,3.75
2022-09-14T22:16:16.623Z,4.43
2022-09-14T22:18:49.128Z,7.32
2022-09-14T22:21:17.056Z,5.75
2022-09-14T22:23:43.868Z,6.85
2022-09-14T22:26:11.748Z,5.10
2022-09-14T22:28:42.292Z,4.78
2022-09-14T22:31:09.142Z,7.70
2022-09-14T22:33:35.984Z,7.18
2022-09-14T22:36:03.724Z,9.65
2022-09-14T22:38:32.422Z,7.53
2022-09-14T22:41:07.096Z,5.32
2022-09-14T22:43:34.974Z,10.65
2022-09-14T22:46:01.843Z,5.55
2022-09-14T22:48:29.184Z,10.80
2022-09-14T22:50:57.239Z,7.38
2022-09-14T22:53:25.168Z,10.57
2022-09-14T22:55:52.591Z,7.80
2022-09-14T22:58:22.356Z,5.85
2022-09-14T23:00:49.062Z,5.97
2022-09-14T23:03:16.832Z,5.63
2022-09-14T23:05:50.185Z,6.50
2022-09-14T23:08:17.041Z,6.72
2022-09-14T23:10:43.734Z,5.50
2022-09-14T23:13:10.122Z,5.20
2022-09-14T23:15:39.958Z,8.55
2022-09-14T23:18:07.231Z,8.52
2022-09-14T23:20:41.476Z,7.82
2022-09-14T23:23:09.115Z,7.55
2022-09-14T23:25:37.182Z,10.43
2022-09-14T23:28:05.410Z,12.02
2022-09-14T23:30:32.528Z,7.78
2022-09-14T23:33:00.304Z,8.57
2022-09-14T23:35:27.780Z,7.15
2022-09-14T23:37:54.886Z,6.95
2022-09-14T23:40:21.666Z,8.23
2022-09-14T23:42:48.066Z,7.20
2022-09-14T23:45:14.876Z,5.93
2022-09-14T23:47:41.688Z,6.38
2022-09-14T23:50:08.755Z,14.60
2022-09-14T23:52:35.137Z,9.13
2022-09-14T23:55:01.488Z,7.88
